UUEE/SVO METAR and TAF weather

Enter ICAO airport designator
Station Type Date Time Source
UUEE METAR 2019/10/14 06:30 UTC NOAA

UUEE 140630Z 26004MPS 9999 FEW009 08/07 Q1017 R88/62D NOSIG


Station Type Date Time Source
UUEE Decoded METAR 2019/10/14 06:30 UTC NOAA

Moscow / Sheremet'Ye , Russia (UUEE) 55-59N 037-30E
Oct 14, 2019 - 02:30 AM EDT / 2019.10.14 0630 UTC
Wind: from the W (260 degrees) at 9 MPH (8 KT):0
Visibility: greater than 7 mile(s):0
Sky conditions: mostly clear
Temperature: 46 F (8 C)
Dew Point: 44 F (7 C)
Relative Humidity: 93%
Pressure (altimeter): 30.03 in. Hg (1017 hPa)
ob: UUEE 140630Z 26004MPS 9999 FEW009 08/07 Q1017 R88/62D NOSIG
cycle: 6

Station Type Date Time Source
UUEE TAF 2019/10/14 06:24 UTC NOAA

TAF UUEE 140458Z 1406/1506 22005MPS 9999 BKN011 TX14/1418Z TN08/1406Z
TEMPO 1409/1424 18008G13MPS -SHRA FEW005 BKN015CB
BECMG 1502/1504 34005MPS

Example: see airport list